Montgomery/Maxwell AFB, Alabama
Current Conditions -  °F | °C
As of 7:08 AM on Friday 24 Oct 2014 (Local Time) from KMXF Reporting Station
Haze Haze  
Wind Chill: 46°   Ceiling: 21000
Heat Index: 46°   Visibility: 1mi
Dew Point: 46°   Wind: 0mph
Humidity: 100%   Direction: NA
Pressure: 30.08"   Gusts: NA
Location:  32.38°N, 86.37°W
Report Text: KMXF 241208Z AUTO 00000KT 1SM R15/P6000FT BR BKN210 08/08 A3008 RMK AO2 VIS 1/2V1
Loading
Personal Weather Stations






























Interactive Weather Map
Tropical Storm Tracking
New forecast layout! Learn more

10-Day Weather Forecast

Advertisements
Track Severe Weather on mobile